createdAt,value
2019-05-06T00:01:24.259Z,101615.02
2019-05-06T00:03:54.187Z,101607.34
2019-05-06T00:06:23.656Z,101610.95
2019-05-06T00:08:54.590Z,101608.58
2019-05-06T00:11:23.850Z,101604.48
2019-05-06T00:13:54.307Z,101604.76
2019-05-06T00:16:23.782Z,101603.23
2019-05-06T00:18:54.138Z,101600.97
2019-05-06T00:21:24.422Z,101601.23
2019-05-06T00:23:54.602Z,101602.20
2019-05-06T00:26:40.937Z,101597.26
2019-05-06T00:29:11.098Z,101588.97
2019-05-06T00:31:39.528Z,101597.88
2019-05-06T00:34:08.027Z,101591.88
2019-05-06T00:36:36.700Z,101591.20
2019-05-06T00:39:26.996Z,101590.50
2019-05-06T00:42:00.073Z,101590.77
2019-05-06T00:44:28.494Z,101585.47
2019-05-06T00:46:56.954Z,101582.13
2019-05-06T00:49:25.435Z,101576.94
2019-05-06T00:51:55.048Z,101572.50
2019-05-06T00:54:27.781Z,101573.48
2019-05-06T00:56:56.644Z,101576.13
2019-05-06T00:59:25.075Z,101572.06
2019-05-06T01:01:53.980Z,101567.39
2019-05-06T01:04:24.511Z,101566.33
2019-05-06T01:06:54.491Z,101573.56
2019-05-06T01:09:23.960Z,101571.88
2019-05-06T01:11:54.606Z,101570.21
2019-05-06T01:14:30.953Z,101571.18
2019-05-06T01:16:59.520Z,101567.83
2019-05-06T01:19:27.955Z,101573.38
2019-05-06T01:21:56.401Z,101574.64
2019-05-06T01:24:24.845Z,101568.65
2019-05-06T01:26:53.745Z,101561.68
2019-05-06T01:29:24.052Z,101567.94
2019-05-06T01:31:54.455Z,101563.27
2019-05-06T01:34:24.517Z,101566.64
2019-05-06T01:36:54.568Z,101566.44
2019-05-06T01:39:39.659Z,101570.05
2019-05-06T01:42:09.728Z,101557.79
2019-05-06T01:44:38.166Z,101564.76
2019-05-06T01:47:06.838Z,101564.76
2019-05-06T01:49:35.249Z,101558.14
2019-05-06T01:52:04.333Z,101559.82
2019-05-06T01:54:34.354Z,101564.76
2019-05-06T01:57:04.446Z,101557.44
2019-05-06T01:59:34.072Z,101559.73
2019-05-06T02:02:04.242Z,101553.12
2019-05-06T02:04:33.791Z,101553.73
2019-05-06T02:07:03.762Z,101557.34
2019-05-06T02:09:34.230Z,101557.14
2019-05-06T02:12:04.557Z,101556.19
2019-05-06T02:14:34.115Z,101552.48
2019-05-06T02:17:03.655Z,101559.59
2019-05-06T02:19:32.203Z,101560.41
2019-05-06T02:22:04.326Z,101556.73
2019-05-06T02:24:37.422Z,101564.58
2019-05-06T02:27:06.608Z,101560.25
2019-05-06T02:29:36.671Z,101561.83
2019-05-06T02:32:24.416Z,101563.77
2019-05-06T02:35:00.824Z,101561.12
2019-05-06T02:37:46.044Z,101555.84
2019-05-06T02:40:18.975Z,101554.88
2019-05-06T02:42:47.991Z,101554.26
2019-05-06T02:45:16.680Z,101552.23
2019-05-06T02:47:55.980Z,101547.91
2019-05-06T02:50:42.732Z,101549.48
2019-05-06T02:53:13.375Z,101552.13
2019-05-06T02:55:43.069Z,101551.77
2019-05-06T02:58:14.587Z,101550.71
2019-05-06T03:00:43.021Z,101548.58
2019-05-06T03:03:13.986Z,101545.37
2019-05-06T03:05:43.945Z,101542.84
2019-05-06T03:08:13.429Z,101528.23
2019-05-06T03:10:44.125Z,101534.75
2019-05-06T03:13:14.297Z,101536.67
2019-05-06T03:15:43.594Z,101531.91
2019-05-06T03:18:14.722Z,101534.09
2019-05-06T03:20:58.358Z,101528.34
2019-05-06T03:23:43.372Z,101529.67
2019-05-06T03:26:13.738Z,101527.73
2019-05-06T03:28:44.043Z,101532.05
2019-05-06T03:31:16.118Z,101531.09
2019-05-06T03:34:03.845Z,101530.84
2019-05-06T03:36:23.579Z,101523.12
2019-05-06T03:38:43.254Z,101521.34
2019-05-06T03:41:13.871Z,101519.41
2019-05-06T03:43:43.523Z,101512.19
2019-05-06T03:46:14.280Z,101512.28
2019-05-06T03:48:53.600Z,101516.95
2019-05-06T03:51:23.302Z,101518.49
2019-05-06T03:53:56.316Z,101517.02
2019-05-06T03:56:23.989Z,101516.77
2019-05-06T03:58:53.728Z,101519.51
2019-05-06T04:01:24.128Z,101509.29
2019-05-06T04:03:56.954Z,101510.35
2019-05-06T04:06:24.211Z,101512.13
2019-05-06T04:08:53.683Z,101513.89
2019-05-06T04:11:23.824Z,101511.81
2019-05-06T04:13:53.837Z,101506.83
2019-05-06T04:16:36.172Z,101505.48
2019-05-06T04:19:23.807Z,101508.30
2019-05-06T04:21:56.757Z,101507.72
2019-05-06T04:24:35.458Z,101513.50
2019-05-06T04:27:25.263Z,101505.12
2019-05-06T04:29:54.509Z,101508.98
2019-05-06T04:32:23.859Z,101503.86
2019-05-06T04:34:53.574Z,101503.29
2019-05-06T04:37:24.223Z,101498.42
2019-05-06T04:39:53.529Z,101504.85
2019-05-06T04:42:26.328Z,101505.05
2019-05-06T04:44:53.346Z,101498.89
2019-05-06T04:47:24.191Z,101499.74
2019-05-06T04:49:53.083Z,101499.27
2019-05-06T04:52:22.807Z,101508.96
2019-05-06T04:54:53.404Z,101500.73
2019-05-06T04:57:23.828Z,101507.75
2019-05-06T04:59:54.186Z,101508.52
2019-05-06T05:02:23.135Z,101511.93
2019-05-06T05:04:53.216Z,101506.42
2019-05-06T05:07:22.492Z,101505.16
2019-05-06T05:09:53.634Z,101509.20
2019-05-06T05:12:39.169Z,101499.27
2019-05-06T05:15:12.431Z,101500.91
2019-05-06T05:17:45.497Z,101498.88
2019-05-06T05:20:13.999Z,101498.81
2019-05-06T05:22:42.500Z,101498.19
2019-05-06T05:25:12.276Z,101498.53
2019-05-06T05:27:42.104Z,101506.55
2019-05-06T05:30:12.434Z,101497.19
2019-05-06T05:32:42.791Z,101498.55
2019-05-06T05:35:12.753Z,101500.15
2019-05-06T05:37:41.992Z,101496.86
2019-05-06T05:40:12.999Z,101501.08
2019-05-06T05:42:43.477Z,101513.55
2019-05-06T05:45:12.916Z,101501.02
2019-05-06T05:47:42.519Z,101514.34
2019-05-06T05:50:18.597Z,101516.01
2019-05-06T05:52:47.054Z,101521.66
2019-05-06T05:55:15.476Z,101518.02
2019-05-06T05:57:44.089Z,101524.66
2019-05-06T06:00:13.054Z,101520.73
2019-05-06T06:02:43.658Z,101512.69
2019-05-06T06:05:12.498Z,101518.58
2019-05-06T06:07:42.224Z,101525.26
2019-05-06T06:10:22.589Z,101521.28
2019-05-06T06:12:52.868Z,101516.13
2019-05-06T06:15:25.977Z,101520.06
2019-05-06T06:17:59.531Z,101513.22
2019-05-06T06:20:46.068Z,101514.89
2019-05-06T06:23:16.264Z,101518.92
2019-05-06T06:25:44.708Z,101508.37
2019-05-06T06:28:13.125Z,101528.99
2019-05-06T06:30:49.125Z,101517.08
2019-05-06T06:33:17.839Z,101518.80
2019-05-06T06:35:54.155Z,101520.85
2019-05-06T06:38:32.262Z,101512.71
2019-05-06T06:41:02.553Z,101508.90
2019-05-06T06:43:32.425Z,101511.67
2019-05-06T06:46:02.509Z,101497.42
2019-05-06T06:48:32.033Z,101501.75
2019-05-06T06:51:03.278Z,101499.14
2019-05-06T06:53:32.723Z,101500.88
2019-05-06T06:56:03.196Z,101492.97
2019-05-06T06:58:33.255Z,101484.41
2019-05-06T07:01:03.385Z,101498.08
2019-05-06T07:03:39.942Z,101494.39
2019-05-06T07:06:12.749Z,101488.53
2019-05-06T07:08:42.620Z,101497.70
2019-05-06T07:11:13.061Z,101493.06
2019-05-06T07:13:44.525Z,101491.42
2019-05-06T07:16:12.958Z,101483.61
2019-05-06T07:18:42.732Z,101490.13
2019-05-06T07:21:14.008Z,101480.53
2019-05-06T07:23:42.681Z,101488.25
2019-05-06T07:26:12.804Z,101489.46
2019-05-06T07:28:43.648Z,101489.31
2019-05-06T07:31:21.907Z,101488.00
2019-05-06T07:33:42.863Z,101492.36
2019-05-06T07:36:13.079Z,101491.09
2019-05-06T07:38:43.405Z,101487.81
2019-05-06T07:41:19.793Z,101483.70
2019-05-06T07:43:59.037Z,101491.26
2019-05-06T07:46:33.099Z,101487.50
2019-05-06T07:49:03.333Z,101489.64
2019-05-06T07:51:32.592Z,101488.30
2019-05-06T07:54:02.793Z,101494.00
2019-05-06T07:56:32.206Z,101494.31
2019-05-06T07:59:09.536Z,101493.65
2019-05-06T08:01:43.844Z,101501.25
2019-05-06T08:04:12.829Z,101489.54
2019-05-06T08:06:42.737Z,101496.19
2019-05-06T08:09:12.994Z,101502.48
2019-05-06T08:11:42.241Z,101508.75
2019-05-06T08:14:12.956Z,101509.20
2019-05-06T08:16:46.491Z,101518.98
2019-05-06T08:19:14.916Z,101504.66
2019-05-06T08:21:45.018Z,101501.67
2019-05-06T08:24:13.440Z,101497.07
2019-05-06T08:26:42.830Z,101498.78
2019-05-06T08:29:12.176Z,101492.22
2019-05-06T08:31:43.064Z,101496.59
2019-05-06T08:34:12.281Z,101491.97
2019-05-06T08:36:43.260Z,101488.99
2019-05-06T08:39:13.089Z,101503.66
2019-05-06T08:41:42.306Z,101490.64
2019-05-06T08:44:12.755Z,101487.13
2019-05-06T08:46:43.242Z,101487.27
2019-05-06T08:49:12.285Z,101483.91
2019-05-06T08:51:42.800Z,101486.59
2019-05-06T08:54:32.487Z,101481.91
2019-05-06T08:57:02.561Z,101483.53
2019-05-06T08:59:32.114Z,101488.20
2019-05-06T09:02:03.244Z,101481.50
2019-05-06T09:04:32.127Z,101483.47
2019-05-06T09:07:02.729Z,101476.36
2019-05-06T09:09:32.554Z,101474.33
2019-05-06T09:12:02.653Z,101483.58
2019-05-06T09:14:32.635Z,101474.55
2019-05-06T09:17:02.914Z,101474.64
2019-05-06T09:19:33.172Z,101475.34
2019-05-06T09:22:02.528Z,101486.12
2019-05-06T09:24:32.084Z,101483.70
2019-05-06T09:27:03.113Z,101499.47
2019-05-06T09:29:36.161Z,101487.97
2019-05-06T09:32:06.230Z,101502.95
2019-05-06T09:34:52.673Z,101505.89
2019-05-06T09:37:24.067Z,101495.87
2019-05-06T09:39:53.483Z,101500.55
2019-05-06T09:42:23.321Z,101497.39
2019-05-06T09:44:54.212Z,101498.23
2019-05-06T09:47:24.005Z,101500.75
2019-05-06T09:49:53.263Z,101494.31
2019-05-06T09:52:23.119Z,101489.30
2019-05-06T09:54:59.739Z,101486.97
2019-05-06T09:57:45.932Z,101498.31
2019-05-06T10:00:16.989Z,101494.97
2019-05-06T10:02:45.432Z,101505.67
2019-05-06T10:05:14.015Z,101512.66
2019-05-06T10:07:42.530Z,101500.30
2019-05-06T10:10:11.278Z,101508.97
2019-05-06T10:12:41.957Z,101500.75
2019-05-06T10:15:12.717Z,101501.63
2019-05-06T10:17:42.902Z,101506.99
2019-05-06T10:20:12.770Z,101499.31
2019-05-06T10:22:43.094Z,101491.64
2019-05-06T10:25:13.428Z,101494.45
2019-05-06T10:27:43.816Z,101481.57
2019-05-06T10:30:14.561Z,101492.16
2019-05-06T10:32:47.306Z,101479.99
2019-05-06T10:35:16.327Z,101497.92
2019-05-06T10:37:59.831Z,101477.70
2019-05-06T10:40:48.613Z,101479.11
2019-05-06T10:43:29.033Z,101465.49
2019-05-06T10:46:00.885Z,101460.75
2019-05-06T10:48:27.906Z,101456.73
2019-05-06T10:51:04.433Z,101464.81
2019-05-06T10:53:33.077Z,101475.00
2019-05-06T10:56:03.222Z,101480.59
2019-05-06T10:58:32.656Z,101492.55
2019-05-06T11:01:12.570Z,101491.42
2019-05-06T11:03:42.005Z,101471.05
2019-05-06T11:06:12.970Z,101479.78
2019-05-06T11:08:42.070Z,101473.43
2019-05-06T11:11:17.049Z,101467.16
2019-05-06T11:13:43.829Z,101452.08
2019-05-06T11:16:12.981Z,101470.43
2019-05-06T11:18:42.641Z,101478.81
2019-05-06T11:21:12.724Z,101484.05
2019-05-06T11:23:41.884Z,101496.28
2019-05-06T11:26:10.439Z,101493.16
2019-05-06T11:28:42.592Z,101489.30
2019-05-06T11:31:29.244Z,101486.97
2019-05-06T11:34:12.611Z,101485.31
2019-05-06T11:36:52.520Z,101473.11
2019-05-06T11:39:23.334Z,101469.70
2019-05-06T11:42:06.284Z,101463.77
2019-05-06T11:44:23.973Z,101463.30
2019-05-06T11:46:52.370Z,101468.20
2019-05-06T11:49:23.251Z,101459.95
2019-05-06T11:51:51.645Z,101467.36
2019-05-06T11:54:23.649Z,101466.41
2019-05-06T11:56:54.336Z,101472.59
2019-05-06T11:59:22.801Z,101498.86
2019-05-06T12:01:53.541Z,101503.39
2019-05-06T12:04:23.013Z,101520.20
2019-05-06T12:06:57.275Z,101511.62
2019-05-06T12:09:22.407Z,101513.66
2019-05-06T12:11:52.826Z,101522.33
2019-05-06T12:14:22.661Z,101511.48
2019-05-06T12:16:54.809Z,101507.27
2019-05-06T12:19:22.523Z,101506.20
2019-05-06T12:21:51.385Z,101508.01
2019-05-06T12:24:19.886Z,101503.20
2019-05-06T12:26:48.308Z,101496.20
2019-05-06T12:29:16.939Z,101503.27
2019-05-06T12:31:47.057Z,101507.61
2019-05-06T12:34:15.743Z,101507.94
2019-05-06T12:36:47.404Z,101508.40
2019-05-06T12:39:19.655Z,101513.78
2019-05-06T12:42:04.843Z,101503.92
2019-05-06T12:44:34.993Z,101499.75
2019-05-06T12:47:13.405Z,101499.70
2019-05-06T12:49:42.606Z,101501.50
2019-05-06T12:52:12.376Z,101506.67
2019-05-06T12:54:42.997Z,101500.11
2019-05-06T12:57:12.584Z,101500.66
2019-05-06T12:59:42.498Z,101504.05
2019-05-06T13:02:13.230Z,101514.14
2019-05-06T13:04:51.744Z,101503.36
2019-05-06T13:07:13.421Z,101505.96
2019-05-06T13:09:44.982Z,101512.70
2019-05-06T13:12:13.965Z,101509.41
2019-05-06T13:14:43.062Z,101510.09
2019-05-06T13:17:13.439Z,101511.41
2019-05-06T13:19:42.865Z,101520.72
2019-05-06T13:22:13.570Z,101518.67
2019-05-06T13:24:42.284Z,101515.63
2019-05-06T13:27:12.672Z,101516.06
2019-05-06T13:29:42.906Z,101516.34
2019-05-06T13:32:13.270Z,101521.11
2019-05-06T13:34:42.435Z,101506.67
2019-05-06T13:37:12.839Z,101504.26
2019-05-06T13:39:43.530Z,101514.20
2019-05-06T13:42:13.426Z,101515.73
2019-05-06T13:44:42.555Z,101507.19
2019-05-06T13:47:13.084Z,101508.98
2019-05-06T13:49:52.353Z,101512.62
2019-05-06T13:52:22.938Z,101512.94
2019-05-06T13:54:52.989Z,101512.59
2019-05-06T13:57:21.567Z,101505.52
2019-05-06T13:59:52.963Z,101513.45
2019-05-06T14:02:30.655Z,101513.48
2019-05-06T14:04:59.495Z,101516.22
2019-05-06T14:07:27.940Z,101509.34
2019-05-06T14:09:56.356Z,101513.62
2019-05-06T14:12:24.840Z,101511.66
2019-05-06T14:14:53.267Z,101520.38
2019-05-06T14:17:22.490Z,101523.59
2019-05-06T14:19:53.134Z,101519.95
2019-05-06T14:22:23.199Z,101537.02
2019-05-06T14:25:00.066Z,101529.81
2019-05-06T14:27:28.516Z,101529.34
2019-05-06T14:29:58.596Z,101531.02
2019-05-06T14:32:27.079Z,101529.48
2019-05-06T14:34:55.613Z,101535.01
2019-05-06T14:37:24.041Z,101556.03
2019-05-06T14:39:59.229Z,101544.33
2019-05-06T14:42:24.696Z,101545.69
2019-05-06T14:44:53.120Z,101540.06
2019-05-06T14:47:26.416Z,101534.08
2019-05-06T14:49:54.856Z,101546.82
2019-05-06T14:52:23.790Z,101543.83
2019-05-06T14:54:53.996Z,101539.13
2019-05-06T14:57:23.392Z,101536.38
2019-05-06T14:59:55.224Z,101532.09
2019-05-06T15:02:26.097Z,101535.49
2019-05-06T15:04:54.016Z,101527.77
2019-05-06T15:07:22.434Z,101534.50
2019-05-06T15:10:07.868Z,101535.89
2019-05-06T15:12:22.878Z,101536.31
2019-05-06T15:14:58.203Z,101535.56
2019-05-06T15:17:26.639Z,101535.75
2019-05-06T15:19:55.065Z,101533.14
2019-05-06T15:22:23.591Z,101536.81
2019-05-06T15:24:53.599Z,101541.16
2019-05-06T15:27:22.963Z,101534.06
2019-05-06T15:29:54.356Z,101535.37
2019-05-06T15:32:27.552Z,101536.69
2019-05-06T15:34:57.591Z,101528.67
2019-05-06T15:37:27.878Z,101527.23
2019-05-06T15:39:56.298Z,101530.78
2019-05-06T15:42:24.747Z,101541.97
2019-05-06T15:44:53.550Z,101539.05
2019-05-06T15:47:22.811Z,101534.92
2019-05-06T15:49:52.652Z,101543.98
2019-05-06T15:52:23.506Z,101536.31
2019-05-06T15:54:52.490Z,101543.02
2019-05-06T15:57:22.852Z,101544.69
2019-05-06T15:59:52.989Z,101543.01
2019-05-06T16:02:23.344Z,101544.00
2019-05-06T16:04:51.996Z,101545.99
2019-05-06T16:07:24.472Z,101544.35
2019-05-06T16:09:55.006Z,101555.02
2019-05-06T16:12:22.058Z,101546.02
2019-05-06T16:14:52.995Z,101546.34
2019-05-06T16:17:23.592Z,101556.02
2019-05-06T16:19:51.034Z,101555.35
2019-05-06T16:22:22.394Z,101543.34
2019-05-06T16:25:09.833Z,101538.33
2019-05-06T16:27:38.645Z,101548.00
2019-05-06T16:30:09.411Z,101545.67
2019-05-06T16:32:37.874Z,101539.82
2019-05-06T16:35:06.863Z,101537.67
2019-05-06T16:37:35.631Z,101542.02
2019-05-06T16:40:05.109Z,101533.00
2019-05-06T16:42:33.660Z,101535.81
2019-05-06T16:45:06.880Z,101532.31
2019-05-06T16:47:44.383Z,101527.97
2019-05-06T16:50:16.943Z,101531.96
2019-05-06T16:52:45.826Z,101542.28
2019-05-06T16:55:17.849Z,101528.25
2019-05-06T16:57:52.462Z,101532.23
2019-05-06T17:00:23.162Z,101538.55
2019-05-06T17:02:57.893Z,101531.87
2019-05-06T17:05:37.290Z,101531.52
2019-05-06T17:08:05.848Z,101536.69
2019-05-06T17:10:34.603Z,101536.83
2019-05-06T17:13:03.164Z,101539.85
2019-05-06T17:15:32.600Z,101532.33
2019-05-06T17:18:03.094Z,101539.81
2019-05-06T17:20:32.560Z,101540.14
2019-05-06T17:23:02.843Z,101538.80
2019-05-06T17:25:32.918Z,101541.13
2019-05-06T17:28:03.765Z,101547.11
2019-05-06T17:30:46.528Z,101546.09
2019-05-06T17:33:33.422Z,101541.94
2019-05-06T17:36:03.037Z,101550.41
2019-05-06T17:38:33.240Z,101555.06
2019-05-06T17:41:02.999Z,101555.72
2019-05-06T17:43:32.979Z,101556.03
2019-05-06T17:46:04.901Z,101563.34
2019-05-06T17:48:43.028Z,101571.83
2019-05-06T17:51:19.371Z,101563.33
2019-05-06T17:53:52.508Z,101566.31
2019-05-06T17:56:22.265Z,101568.30
2019-05-06T17:58:52.936Z,101570.93
2019-05-06T18:01:33.124Z,101571.89
2019-05-06T18:04:02.296Z,101573.20
2019-05-06T18:06:32.995Z,101577.16
2019-05-06T18:09:02.510Z,101573.00
2019-05-06T18:11:33.227Z,101579.48
2019-05-06T18:14:03.785Z,101571.50
2019-05-06T18:16:33.451Z,101572.01
2019-05-06T18:19:03.144Z,101563.85
2019-05-06T18:21:31.887Z,101575.49
2019-05-06T18:24:02.353Z,101567.84
2019-05-06T18:26:33.355Z,101563.31
2019-05-06T18:29:02.261Z,101566.15
2019-05-06T18:31:32.900Z,101574.10
2019-05-06T18:34:03.255Z,101582.22
2019-05-06T18:36:31.135Z,101579.70
2019-05-06T18:39:00.053Z,101576.02
2019-05-06T18:41:29.420Z,101583.97
2019-05-06T18:43:58.124Z,101583.94
2019-05-06T18:46:26.739Z,101582.59
2019-05-06T18:48:55.176Z,101577.72
2019-05-06T18:51:23.603Z,101584.20
2019-05-06T18:53:52.527Z,101589.83
2019-05-06T18:56:22.366Z,101593.09
2019-05-06T18:58:53.108Z,101590.36
2019-05-06T19:01:23.277Z,101589.29
2019-05-06T19:03:59.648Z,101592.58
2019-05-06T19:06:28.126Z,101586.19
2019-05-06T19:08:58.172Z,101593.78
2019-05-06T19:11:26.658Z,101588.77
2019-05-06T19:13:55.582Z,101598.37
2019-05-06T19:16:24.008Z,101599.35
2019-05-06T19:18:52.512Z,101600.34
2019-05-06T19:21:27.388Z,101597.34
2019-05-06T19:23:55.826Z,101603.91
2019-05-06T19:26:24.532Z,101603.25
2019-05-06T19:28:53.293Z,101609.20
2019-05-06T19:31:22.917Z,101614.31
2019-05-06T19:33:52.634Z,101607.48
2019-05-06T19:36:23.558Z,101611.77
2019-05-06T19:38:51.444Z,101610.05
2019-05-06T19:41:22.216Z,101612.52
2019-05-06T19:43:52.254Z,101614.96
2019-05-06T19:46:20.537Z,101619.59
2019-05-06T19:48:49.262Z,101617.22
2019-05-06T19:51:17.727Z,101620.52
2019-05-06T19:53:46.190Z,101619.48
2019-05-06T19:56:14.630Z,101619.80
2019-05-06T19:58:43.281Z,101616.06
2019-05-06T20:01:11.933Z,101620.97
2019-05-06T20:03:40.300Z,101618.89
2019-05-06T20:06:28.485Z,101629.80
2019-05-06T20:09:02.288Z,101626.75
2019-05-06T20:11:33.195Z,101637.18
2019-05-06T20:14:02.131Z,101629.03
2019-05-06T20:16:32.300Z,101631.69
2019-05-06T20:19:02.330Z,101629.03
2019-05-06T20:21:32.843Z,101623.05
2019-05-06T20:24:02.362Z,101627.03
2019-05-06T20:26:32.410Z,101627.03
2019-05-06T20:29:02.211Z,101623.39
2019-05-06T20:31:32.164Z,101624.59
2019-05-06T20:34:02.236Z,101617.80
2019-05-06T20:36:33.032Z,101623.74
2019-05-06T20:39:02.567Z,101619.41
2019-05-06T20:41:32.900Z,101624.73
2019-05-06T20:44:02.670Z,101629.69
2019-05-06T20:46:32.344Z,101629.21
2019-05-06T20:49:02.421Z,101620.74
2019-05-06T20:51:32.792Z,101633.03
2019-05-06T20:54:01.208Z,101626.27
2019-05-06T20:56:29.682Z,101631.36
2019-05-06T20:58:58.124Z,101631.52
2019-05-06T21:01:26.751Z,101628.68
2019-05-06T21:03:55.227Z,101631.62
2019-05-06T21:06:24.933Z,101628.91
2019-05-06T21:08:53.590Z,101623.19
2019-05-06T21:11:28.832Z,101626.13
2019-05-06T21:13:52.240Z,101624.74
2019-05-06T21:16:22.525Z,101626.42
2019-05-06T21:18:52.122Z,101623.29
2019-05-06T21:21:20.710Z,101631.72
2019-05-06T21:23:49.369Z,101632.36
2019-05-06T21:26:17.872Z,101630.84
2019-05-06T21:28:46.552Z,101629.58
2019-05-06T21:31:15.406Z,101625.91
2019-05-06T21:33:44.076Z,101622.15
2019-05-06T21:36:12.536Z,101622.02
2019-05-06T21:38:42.706Z,101631.52
2019-05-06T21:41:12.359Z,101633.06
2019-05-06T21:43:46.946Z,101631.34
2019-05-06T21:46:12.988Z,101628.91
2019-05-06T21:48:42.117Z,101629.45
2019-05-06T21:51:12.286Z,101626.03
2019-05-06T21:53:40.813Z,101630.56
2019-05-06T21:56:09.606Z,101621.37
2019-05-06T21:58:38.033Z,101625.42
2019-05-06T22:01:08.254Z,101619.70
2019-05-06T22:03:36.832Z,101625.55
2019-05-06T22:06:05.352Z,101622.39
2019-05-06T22:08:33.871Z,101617.01
2019-05-06T22:11:03.081Z,101614.31
2019-05-06T22:13:33.271Z,101611.94
2019-05-06T22:16:04.855Z,101616.18
2019-05-06T22:18:32.715Z,101612.13
2019-05-06T22:21:17.851Z,101617.34
2019-05-06T22:23:57.103Z,101621.59
2019-05-06T22:26:27.148Z,101617.53
2019-05-06T22:28:56.217Z,101617.59
2019-05-06T22:31:26.988Z,101616.39
2019-05-06T22:33:55.666Z,101615.72
2019-05-06T22:36:24.312Z,101612.98
2019-05-06T22:38:53.181Z,101611.08
2019-05-06T22:41:23.307Z,101613.88
2019-05-06T22:43:53.165Z,101610.38
2019-05-06T22:46:23.448Z,101606.16
2019-05-06T22:48:54.358Z,101607.41
2019-05-06T22:51:22.971Z,101604.67
2019-05-06T22:53:53.285Z,101607.94
2019-05-06T22:56:23.005Z,101610.84
2019-05-06T22:58:52.396Z,101612.44
2019-05-06T23:01:32.466Z,101617.67
2019-05-06T23:04:02.086Z,101617.08
2019-05-06T23:06:32.839Z,101613.52
2019-05-06T23:09:02.573Z,101620.76
2019-05-06T23:11:32.765Z,101622.70
2019-05-06T23:14:02.770Z,101615.11
2019-05-06T23:16:33.079Z,101615.47
2019-05-06T23:19:02.176Z,101618.73
2019-05-06T23:21:30.655Z,101619.34
2019-05-06T23:23:59.098Z,101620.92
2019-05-06T23:26:27.663Z,101614.11
2019-05-06T23:28:56.077Z,101619.52
2019-05-06T23:31:24.770Z,101618.45
2019-05-06T23:33:53.448Z,101611.12
2019-05-06T23:36:22.906Z,101622.33
2019-05-06T23:39:28.187Z,101619.94
2019-05-06T23:42:33.050Z,101617.94
2019-05-06T23:45:37.972Z,101622.28
2019-05-06T23:48:43.040Z,101617.25
2019-05-06T23:51:47.829Z,101618.72
2019-05-06T23:54:52.841Z,101624.01
2019-05-06T23:57:22.885Z,101625.69
2019-05-06T23:59:51.877Z,101622.19
